sensor_id;sensor_type;location;lat;lon;timestamp;P1;durP1;ratioP1;P2;durP2;ratioP2
10643;SDS011;5370;50.132;8.626;2023-04-15T00:00:39;7.40;;;4.70;;
10643;SDS011;5370;50.132;8.626;2023-04-15T00:03:05;8.07;;;4.33;;
10643;SDS011;5370;50.132;8.626;2023-04-15T00:05:31;6.50;;;3.83;;
10643;SDS011;5370;50.132;8.626;2023-04-15T00:07:57;6.43;;;4.30;;
10643;SDS011;5370;50.132;8.626;2023-04-15T00:10:23;5.00;;;3.83;;
10643;SDS011;5370;50.132;8.626;2023-04-15T00:12:49;9.87;;;4.13;;
10643;SDS011;5370;50.132;8.626;2023-04-15T00:15:15;6.47;;;4.13;;
10643;SDS011;5370;50.132;8.626;2023-04-15T00:17:40;6.77;;;4.40;;
10643;SDS011;5370;50.132;8.626;2023-04-15T00:20:07;11.63;;;4.13;;
10643;SDS011;5370;50.132;8.626;2023-04-15T00:22:32;6.10;;;4.50;;
10643;SDS011;5370;50.132;8.626;2023-04-15T00:24:58;6.70;;;4.43;;
10643;SDS011;5370;50.132;8.626;2023-04-15T00:27:23;7.30;;;4.53;;
10643;SDS011;5370;50.132;8.626;2023-04-15T00:29:49;6.87;;;4.33;;
10643;SDS011;5370;50.132;8.626;2023-04-15T00:32:15;6.47;;;4.70;;
10643;SDS011;5370;50.132;8.626;2023-04-15T00:34:40;6.77;;;4.97;;
10643;SDS011;5370;50.132;8.626;2023-04-15T00:37:06;8.77;;;4.40;;
10643;SDS011;5370;50.132;8.626;2023-04-15T00:39:32;7.10;;;5.00;;
10643;SDS011;5370;50.132;8.626;2023-04-15T00:41:58;8.13;;;5.00;;
10643;SDS011;5370;50.132;8.626;2023-04-15T00:44:24;8.07;;;4.93;;
10643;SDS011;5370;50.132;8.626;2023-04-15T00:46:50;6.93;;;5.17;;
10643;SDS011;5370;50.132;8.626;2023-04-15T00:49:16;7.27;;;4.83;;
10643;SDS011;5370;50.132;8.626;2023-04-15T00:51:43;7.13;;;5.03;;
10643;SDS011;5370;50.132;8.626;2023-04-15T00:54:08;11.80;;;5.57;;
10643;SDS011;5370;50.132;8.626;2023-04-15T00:56:34;9.67;;;4.90;;
10643;SDS011;5370;50.132;8.626;2023-04-15T00:59:02;10.60;;;5.23;;
10643;SDS011;5370;50.132;8.626;2023-04-15T01:01:27;7.70;;;4.53;;
10643;SDS011;5370;50.132;8.626;2023-04-15T01:03:55;5.53;;;4.63;;
10643;SDS011;5370;50.132;8.626;2023-04-15T01:06:24;8.00;;;4.80;;
10643;SDS011;5370;50.132;8.626;2023-04-15T01:08:51;5.97;;;4.57;;
10643;SDS011;5370;50.132;8.626;2023-04-15T01:11:18;5.73;;;5.20;;
10643;SDS011;5370;50.132;8.626;2023-04-15T01:13:43;12.60;;;5.00;;
10643;SDS011;5370;50.132;8.626;2023-04-15T01:16:10;9.20;;;5.27;;
10643;SDS011;5370;50.132;8.626;2023-04-15T01:18:37;7.33;;;5.33;;
10643;SDS011;5370;50.132;8.626;2023-04-15T01:21:03;8.83;;;4.97;;
10643;SDS011;5370;50.132;8.626;2023-04-15T01:23:30;6.77;;;5.87;;
10643;SDS011;5370;50.132;8.626;2023-04-15T01:25:56;7.77;;;4.93;;
10643;SDS011;5370;50.132;8.626;2023-04-15T01:28:23;7.13;;;5.30;;
10643;SDS011;5370;50.132;8.626;2023-04-15T01:30:49;9.43;;;5.73;;
10643;SDS011;5370;50.132;8.626;2023-04-15T01:33:15;7.23;;;5.23;;
10643;SDS011;5370;50.132;8.626;2023-04-15T01:35:40;8.60;;;6.17;;
10643;SDS011;5370;50.132;8.626;2023-04-15T01:38:08;10.60;;;5.57;;
10643;SDS011;5370;50.132;8.626;2023-04-15T01:40:35;7.50;;;5.60;;
10643;SDS011;5370;50.132;8.626;2023-04-15T01:43:01;13.53;;;5.83;;
10643;SDS011;5370;50.132;8.626;2023-04-15T01:45:27;8.30;;;6.00;;
10643;SDS011;5370;50.132;8.626;2023-04-15T01:47:53;8.50;;;5.80;;
10643;SDS011;5370;50.132;8.626;2023-04-15T01:50:19;8.67;;;6.00;;
10643;SDS011;5370;50.132;8.626;2023-04-15T01:52:45;9.47;;;6.07;;
10643;SDS011;5370;50.132;8.626;2023-04-15T01:55:12;9.37;;;5.83;;
10643;SDS011;5370;50.132;8.626;2023-04-15T01:57:38;6.50;;;5.80;;
10643;SDS011;5370;50.132;8.626;2023-04-15T02:00:05;8.37;;;5.87;;
10643;SDS011;5370;50.132;8.626;2023-04-15T02:02:33;7.43;;;5.37;;
10643;SDS011;5370;50.132;8.626;2023-04-15T02:04:59;9.93;;;6.27;;
10643;SDS011;5370;50.132;8.626;2023-04-15T02:07:25;8.37;;;6.37;;
10643;SDS011;5370;50.132;8.626;2023-04-15T02:09:52;9.20;;;6.30;;
10643;SDS011;5370;50.132;8.626;2023-04-15T02:12:18;9.93;;;6.07;;
10643;SDS011;5370;50.132;8.626;2023-04-15T02:14:43;11.37;;;6.90;;
10643;SDS011;5370;50.132;8.626;2023-04-15T02:17:09;11.63;;;6.70;;
10643;SDS011;5370;50.132;8.626;2023-04-15T02:19:35;10.30;;;6.27;;
10643;SDS011;5370;50.132;8.626;2023-04-15T02:22:00;8.73;;;5.80;;
10643;SDS011;5370;50.132;8.626;2023-04-15T02:24:26;8.13;;;6.23;;
10643;SDS011;5370;50.132;8.626;2023-04-15T02:26:53;11.37;;;6.13;;
10643;SDS011;5370;50.132;8.626;2023-04-15T02:29:19;10.70;;;5.93;;
10643;SDS011;5370;50.132;8.626;2023-04-15T02:31:44;7.43;;;5.80;;
10643;SDS011;5370;50.132;8.626;2023-04-15T02:34:10;6.60;;;5.87;;
10643;SDS011;5370;50.132;8.626;2023-04-15T02:36:35;8.57;;;5.73;;
10643;SDS011;5370;50.132;8.626;2023-04-15T02:39:01;9.47;;;5.93;;
10643;SDS011;5370;50.132;8.626;2023-04-15T02:41:28;12.03;;;5.97;;
10643;SDS011;5370;50.132;8.626;2023-04-15T02:43:54;8.97;;;5.80;;
10643;SDS011;5370;50.132;8.626;2023-04-15T02:46:20;11.23;;;5.70;;
10643;SDS011;5370;50.132;8.626;2023-04-15T02:48:46;10.13;;;6.23;;
10643;SDS011;5370;50.132;8.626;2023-04-15T02:51:16;10.03;;;6.40;;
10643;SDS011;5370;50.132;8.626;2023-04-15T02:53:44;13.20;;;7.17;;
10643;SDS011;5370;50.132;8.626;2023-04-15T02:56:10;10.20;;;6.60;;
10643;SDS011;5370;50.132;8.626;2023-04-15T02:58:36;10.33;;;6.77;;
10643;SDS011;5370;50.132;8.626;2023-04-15T03:01:03;9.17;;;6.67;;
10643;SDS011;5370;50.132;8.626;2023-04-15T03:03:28;14.87;;;6.87;;
10643;SDS011;5370;50.132;8.626;2023-04-15T03:05:54;9.13;;;6.90;;
10643;SDS011;5370;50.132;8.626;2023-04-15T03:08:20;9.60;;;6.67;;
10643;SDS011;5370;50.132;8.626;2023-04-15T03:10:46;9.90;;;7.13;;
10643;SDS011;5370;50.132;8.626;2023-04-15T03:13:12;9.90;;;7.00;;
10643;SDS011;5370;50.132;8.626;2023-04-15T03:15:37;10.93;;;7.07;;
10643;SDS011;5370;50.132;8.626;2023-04-15T03:18:03;12.07;;;7.67;;
10643;SDS011;5370;50.132;8.626;2023-04-15T03:20:28;8.83;;;6.77;;
10643;SDS011;5370;50.132;8.626;2023-04-15T03:22:54;15.43;;;7.40;;
10643;SDS011;5370;50.132;8.626;2023-04-15T03:25:20;9.93;;;6.23;;
10643;SDS011;5370;50.132;8.626;2023-04-15T03:27:45;8.40;;;6.83;;
10643;SDS011;5370;50.132;8.626;2023-04-15T03:30:11;10.77;;;6.93;;
10643;SDS011;5370;50.132;8.626;2023-04-15T03:32:37;10.97;;;7.23;;
10643;SDS011;5370;50.132;8.626;2023-04-15T03:35:03;11.00;;;6.60;;
10643;SDS011;5370;50.132;8.626;2023-04-15T03:37:29;8.93;;;6.37;;
10643;SDS011;5370;50.132;8.626;2023-04-15T03:39:54;9.07;;;6.17;;
10643;SDS011;5370;50.132;8.626;2023-04-15T03:42:20;13.97;;;6.90;;
10643;SDS011;5370;50.132;8.626;2023-04-15T03:44:46;11.07;;;6.53;;
10643;SDS011;5370;50.132;8.626;2023-04-15T03:47:11;12.47;;;7.13;;
10643;SDS011;5370;50.132;8.626;2023-04-15T03:49:37;8.03;;;6.50;;
10643;SDS011;5370;50.132;8.626;2023-04-15T03:52:02;9.23;;;6.90;;
10643;SDS011;5370;50.132;8.626;2023-04-15T03:54:28;10.10;;;7.30;;
10643;SDS011;5370;50.132;8.626;2023-04-15T03:56:53;8.87;;;7.00;;
10643;SDS011;5370;50.132;8.626;2023-04-15T03:59:19;9.20;;;7.40;;
10643;SDS011;5370;50.132;8.626;2023-04-15T04:01:45;11.27;;;7.23;;
10643;SDS011;5370;50.132;8.626;2023-04-15T04:04:10;9.83;;;6.50;;
10643;SDS011;5370;50.132;8.626;2023-04-15T04:06:36;12.13;;;7.27;;
10643;SDS011;5370;50.132;8.626;2023-04-15T04:09:01;10.30;;;6.50;;
10643;SDS011;5370;50.132;8.626;2023-04-15T04:11:27;13.13;;;7.40;;
10643;SDS011;5370;50.132;8.626;2023-04-15T04:13:53;12.10;;;7.30;;
10643;SDS011;5370;50.132;8.626;2023-04-15T04:16:18;9.50;;;6.60;;
10643;SDS011;5370;50.132;8.626;2023-04-15T04:18:44;8.57;;;7.07;;
10643;SDS011;5370;50.132;8.626;2023-04-15T04:21:10;9.13;;;6.83;;
10643;SDS011;5370;50.132;8.626;2023-04-15T04:23:35;11.40;;;6.93;;
10643;SDS011;5370;50.132;8.626;2023-04-15T04:26:01;15.50;;;8.23;;
10643;SDS011;5370;50.132;8.626;2023-04-15T04:28:26;9.70;;;7.47;;
10643;SDS011;5370;50.132;8.626;2023-04-15T04:30:52;9.00;;;7.00;;
10643;SDS011;5370;50.132;8.626;2023-04-15T04:33:17;9.80;;;7.23;;
10643;SDS011;5370;50.132;8.626;2023-04-15T04:35:43;9.47;;;6.57;;
10643;SDS011;5370;50.132;8.626;2023-04-15T04:38:09;8.07;;;6.33;;
10643;SDS011;5370;50.132;8.626;2023-04-15T04:40:34;10.00;;;6.60;;
10643;SDS011;5370;50.132;8.626;2023-04-15T04:43:00;12.93;;;6.83;;
10643;SDS011;5370;50.132;8.626;2023-04-15T04:45:26;9.17;;;6.70;;
10643;SDS011;5370;50.132;8.626;2023-04-15T04:47:51;8.23;;;6.77;;
10643;SDS011;5370;50.132;8.626;2023-04-15T04:50:17;10.20;;;5.70;;
10643;SDS011;5370;50.132;8.626;2023-04-15T04:52:43;9.80;;;6.30;;
10643;SDS011;5370;50.132;8.626;2023-04-15T04:55:08;9.43;;;5.80;;
10643;SDS011;5370;50.132;8.626;2023-04-15T04:57:34;6.90;;;5.97;;
10643;SDS011;5370;50.132;8.626;2023-04-15T05:00:00;10.83;;;6.60;;
10643;SDS011;5370;50.132;8.626;2023-04-15T05:02:27;11.10;;;7.37;;
10643;SDS011;5370;50.132;8.626;2023-04-15T05:04:52;8.53;;;6.13;;
10643;SDS011;5370;50.132;8.626;2023-04-15T05:07:18;12.57;;;6.70;;
10643;SDS011;5370;50.132;8.626;2023-04-15T05:09:44;10.37;;;6.30;;
10643;SDS011;5370;50.132;8.626;2023-04-15T05:12:10;9.27;;;5.83;;
10643;SDS011;5370;50.132;8.626;2023-04-15T05:14:39;9.17;;;5.93;;
10643;SDS011;5370;50.132;8.626;2023-04-15T05:17:05;11.50;;;7.50;;
10643;SDS011;5370;50.132;8.626;2023-04-15T05:19:30;7.57;;;6.00;;
10643;SDS011;5370;50.132;8.626;2023-04-15T05:21:56;13.30;;;6.50;;
10643;SDS011;5370;50.132;8.626;2023-04-15T05:24:21;6.47;;;5.77;;
10643;SDS011;5370;50.132;8.626;2023-04-15T05:26:47;40.43;;;24.03;;
10643;SDS011;5370;50.132;8.626;2023-04-15T05:29:12;8.43;;;6.17;;
10643;SDS011;5370;50.132;8.626;2023-04-15T05:31:38;11.90;;;7.03;;
10643;SDS011;5370;50.132;8.626;2023-04-15T05:34:04;10.43;;;6.37;;
10643;SDS011;5370;50.132;8.626;2023-04-15T05:36:29;10.27;;;7.17;;
10643;SDS011;5370;50.132;8.626;2023-04-15T05:38:56;9.17;;;7.20;;
10643;SDS011;5370;50.132;8.626;2023-04-15T05:41:21;9.97;;;6.93;;
10643;SDS011;5370;50.132;8.626;2023-04-15T05:43:47;7.67;;;6.10;;
10643;SDS011;5370;50.132;8.626;2023-04-15T05:46:12;10.70;;;6.30;;
10643;SDS011;5370;50.132;8.626;2023-04-15T05:48:38;11.00;;;6.30;;
10643;SDS011;5370;50.132;8.626;2023-04-15T05:51:03;10.67;;;6.33;;
10643;SDS011;5370;50.132;8.626;2023-04-15T05:53:29;8.80;;;5.67;;
10643;SDS011;5370;50.132;8.626;2023-04-15T05:55:55;10.43;;;5.70;;
10643;SDS011;5370;50.132;8.626;2023-04-15T05:58:21;10.57;;;6.07;;
10643;SDS011;5370;50.132;8.626;2023-04-15T06:00:46;8.60;;;5.80;;
10643;SDS011;5370;50.132;8.626;2023-04-15T06:03:12;8.23;;;5.40;;
10643;SDS011;5370;50.132;8.626;2023-04-15T06:05:37;11.20;;;5.87;;
10643;SDS011;5370;50.132;8.626;2023-04-15T06:08:03;6.73;;;5.20;;
10643;SDS011;5370;50.132;8.626;2023-04-15T06:10:28;10.47;;;5.60;;
10643;SDS011;5370;50.132;8.626;2023-04-15T06:12:54;10.30;;;5.30;;
10643;SDS011;5370;50.132;8.626;2023-04-15T06:15:20;10.57;;;5.83;;
10643;SDS011;5370;50.132;8.626;2023-04-15T06:17:46;7.93;;;5.20;;
10643;SDS011;5370;50.132;8.626;2023-04-15T06:20:11;8.47;;;5.73;;
10643;SDS011;5370;50.132;8.626;2023-04-15T06:22:37;9.97;;;6.30;;
10643;SDS011;5370;50.132;8.626;2023-04-15T06:25:03;7.80;;;6.10;;
10643;SDS011;5370;50.132;8.626;2023-04-15T06:27:29;7.67;;;5.57;;
10643;SDS011;5370;50.132;8.626;2023-04-15T06:29:55;6.37;;;4.60;;
10643;SDS011;5370;50.132;8.626;2023-04-15T06:32:20;6.93;;;5.30;;
10643;SDS011;5370;50.132;8.626;2023-04-15T06:34:45;6.50;;;5.33;;
10643;SDS011;5370;50.132;8.626;2023-04-15T06:37:11;8.27;;;5.47;;
10643;SDS011;5370;50.132;8.626;2023-04-15T06:39:40;6.73;;;4.57;;
10643;SDS011;5370;50.132;8.626;2023-04-15T06:42:06;5.83;;;4.47;;
10643;SDS011;5370;50.132;8.626;2023-04-15T06:44:33;5.23;;;4.43;;
10643;SDS011;5370;50.132;8.626;2023-04-15T06:46:58;6.23;;;5.00;;
10643;SDS011;5370;50.132;8.626;2023-04-15T06:49:24;9.90;;;5.40;;
10643;SDS011;5370;50.132;8.626;2023-04-15T06:51:50;7.13;;;4.30;;
10643;SDS011;5370;50.132;8.626;2023-04-15T06:54:16;6.77;;;4.87;;
10643;SDS011;5370;50.132;8.626;2023-04-15T06:56:42;8.23;;;4.23;;
10643;SDS011;5370;50.132;8.626;2023-04-15T06:59:07;8.47;;;4.60;;
10643;SDS011;5370;50.132;8.626;2023-04-15T07:01:33;9.27;;;4.47;;
10643;SDS011;5370;50.132;8.626;2023-04-15T07:03:59;6.43;;;4.60;;
10643;SDS011;5370;50.132;8.626;2023-04-15T07:06:25;6.10;;;4.00;;
10643;SDS011;5370;50.132;8.626;2023-04-15T07:08:51;8.87;;;4.63;;
10643;SDS011;5370;50.132;8.626;2023-04-15T07:11:17;4.70;;;4.30;;
10643;SDS011;5370;50.132;8.626;2023-04-15T07:13:43;8.90;;;3.80;;
10643;SDS011;5370;50.132;8.626;2023-04-15T07:16:09;6.40;;;4.33;;
10643;SDS011;5370;50.132;8.626;2023-04-15T07:18:34;7.50;;;4.17;;
10643;SDS011;5370;50.132;8.626;2023-04-15T07:21:00;8.43;;;4.40;;
10643;SDS011;5370;50.132;8.626;2023-04-15T07:23:25;5.83;;;3.70;;
10643;SDS011;5370;50.132;8.626;2023-04-15T07:25:51;4.07;;;3.70;;
10643;SDS011;5370;50.132;8.626;2023-04-15T07:28:17;5.03;;;4.23;;
10643;SDS011;5370;50.132;8.626;2023-04-15T07:30:42;6.23;;;4.10;;
10643;SDS011;5370;50.132;8.626;2023-04-15T07:33:08;5.73;;;4.63;;
10643;SDS011;5370;50.132;8.626;2023-04-15T07:35:33;8.17;;;4.30;;
10643;SDS011;5370;50.132;8.626;2023-04-15T07:37:59;8.10;;;4.47;;
10643;SDS011;5370;50.132;8.626;2023-04-15T07:40:24;6.13;;;4.40;;
10643;SDS011;5370;50.132;8.626;2023-04-15T07:42:50;7.80;;;4.65;;
10643;SDS011;5370;50.132;8.626;2023-04-15T07:45:16;9.32;;;4.55;;
10643;SDS011;5370;50.132;8.626;2023-04-15T07:47:41;6.57;;;4.47;;
10643;SDS011;5370;50.132;8.626;2023-04-15T07:50:08;7.77;;;4.93;;
10643;SDS011;5370;50.132;8.626;2023-04-15T07:52:35;5.67;;;4.50;;
10643;SDS011;5370;50.132;8.626;2023-04-15T07:55:06;7.63;;;4.90;;
10643;SDS011;5370;50.132;8.626;2023-04-15T07:57:35;8.23;;;4.27;;
10643;SDS011;5370;50.132;8.626;2023-04-15T08:00:01;7.70;;;4.77;;
10643;SDS011;5370;50.132;8.626;2023-04-15T08:02:30;5.90;;;5.00;;
10643;SDS011;5370;50.132;8.626;2023-04-15T08:04:56;5.60;;;4.60;;
10643;SDS011;5370;50.132;8.626;2023-04-15T08:07:22;7.43;;;4.70;;
10643;SDS011;5370;50.132;8.626;2023-04-15T08:09:48;5.47;;;4.93;;
10643;SDS011;5370;50.132;8.626;2023-04-15T08:12:13;7.67;;;5.03;;
10643;SDS011;5370;50.132;8.626;2023-04-15T08:14:39;5.53;;;4.90;;
10643;SDS011;5370;50.132;8.626;2023-04-15T08:17:05;5.30;;;4.80;;
10643;SDS011;5370;50.132;8.626;2023-04-15T08:19:31;6.57;;;5.00;;
10643;SDS011;5370;50.132;8.626;2023-04-15T08:21:57;6.93;;;4.97;;
10643;SDS011;5370;50.132;8.626;2023-04-15T08:24:23;7.53;;;5.80;;
10643;SDS011;5370;50.132;8.626;2023-04-15T08:26:50;8.57;;;5.70;;
10643;SDS011;5370;50.132;8.626;2023-04-15T08:29:16;6.37;;;5.17;;
10643;SDS011;5370;50.132;8.626;2023-04-15T08:31:41;5.67;;;5.07;;
10643;SDS011;5370;50.132;8.626;2023-04-15T08:34:07;9.70;;;5.60;;
10643;SDS011;5370;50.132;8.626;2023-04-15T08:36:33;9.10;;;4.87;;
10643;SDS011;5370;50.132;8.626;2023-04-15T08:38:58;6.40;;;5.47;;
10643;SDS011;5370;50.132;8.626;2023-04-15T08:41:25;6.77;;;5.13;;
10643;SDS011;5370;50.132;8.626;2023-04-15T08:43:58;5.63;;;5.03;;
10643;SDS011;5370;50.132;8.626;2023-04-15T08:46:27;6.85;;;4.85;;
10643;SDS011;5370;50.132;8.626;2023-04-15T08:48:55;6.43;;;5.50;;
10643;SDS011;5370;50.132;8.626;2023-04-15T08:51:21;6.33;;;5.77;;
10643;SDS011;5370;50.132;8.626;2023-04-15T08:53:48;5.22;;;4.63;;
10643;SDS011;5370;50.132;8.626;2023-04-15T08:56:14;6.40;;;5.68;;
10643;SDS011;5370;50.132;8.626;2023-04-15T08:58:43;6.25;;;5.40;;
10643;SDS011;5370;50.132;8.626;2023-04-15T09:01:10;5.47;;;5.00;;
10643;SDS011;5370;50.132;8.626;2023-04-15T09:03:37;7.13;;;5.18;;
10643;SDS011;5370;50.132;8.626;2023-04-15T09:06:04;4.97;;;4.10;;
10643;SDS011;5370;50.132;8.626;2023-04-15T09:08:30;5.93;;;4.63;;
10643;SDS011;5370;50.132;8.626;2023-04-15T09:10:56;4.97;;;4.30;;
10643;SDS011;5370;50.132;8.626;2023-04-15T09:13:22;5.15;;;4.65;;
10643;SDS011;5370;50.132;8.626;2023-04-15T09:15:47;6.40;;;4.40;;
10643;SDS011;5370;50.132;8.626;2023-04-15T09:18:13;5.63;;;4.30;;
10643;SDS011;5370;50.132;8.626;2023-04-15T09:20:55;5.72;;;3.90;;
10643;SDS011;5370;50.132;8.626;2023-04-15T09:23:20;4.63;;;4.03;;
10643;SDS011;5370;50.132;8.626;2023-04-15T09:25:46;3.45;;;3.15;;
10643;SDS011;5370;50.132;8.626;2023-04-15T09:28:13;4.05;;;3.72;;
10643;SDS011;5370;50.132;8.626;2023-04-15T09:30:39;3.10;;;2.80;;
10643;SDS011;5370;50.132;8.626;2023-04-15T09:33:10;4.97;;;3.13;;
10643;SDS011;5370;50.132;8.626;2023-04-15T09:35:38;3.03;;;2.83;;
10643;SDS011;5370;50.132;8.626;2023-04-15T09:38:08;3.80;;;3.40;;
10643;SDS011;5370;50.132;8.626;2023-04-15T09:43:01;4.70;;;3.13;;
10643;SDS011;5370;50.132;8.626;2023-04-15T09:45:28;4.57;;;2.80;;
10643;SDS011;5370;50.132;8.626;2023-04-15T09:47:54;4.50;;;3.10;;
10643;SDS011;5370;50.132;8.626;2023-04-15T09:50:27;3.00;;;2.40;;
10643;SDS011;5370;50.132;8.626;2023-04-15T09:52:53;5.20;;;3.10;;
10643;SDS011;5370;50.132;8.626;2023-04-15T09:55:19;3.33;;;2.50;;
10643;SDS011;5370;50.132;8.626;2023-04-15T09:57:45;5.20;;;2.70;;
10643;SDS011;5370;50.132;8.626;2023-04-15T10:00:11;3.90;;;2.60;;
10643;SDS011;5370;50.132;8.626;2023-04-15T10:02:41;2.40;;;2.20;;
10643;SDS011;5370;50.132;8.626;2023-04-15T10:05:09;5.07;;;2.80;;
10643;SDS011;5370;50.132;8.626;2023-04-15T10:07:35;2.50;;;2.20;;
10643;SDS011;5370;50.132;8.626;2023-04-15T10:10:03;2.83;;;2.50;;
10643;SDS011;5370;50.132;8.626;2023-04-15T10:12:29;3.30;;;2.27;;
10643;SDS011;5370;50.132;8.626;2023-04-15T10:14:58;4.90;;;2.70;;
10643;SDS011;5370;50.132;8.626;2023-04-15T10:17:27;3.07;;;2.40;;
10643;SDS011;5370;50.132;8.626;2023-04-15T10:19:57;4.70;;;2.37;;
10643;SDS011;5370;50.132;8.626;2023-04-15T10:22:25;2.90;;;2.63;;
10643;SDS011;5370;50.132;8.626;2023-04-15T10:24:52;7.90;;;2.80;;
10643;SDS011;5370;50.132;8.626;2023-04-15T10:27:18;6.47;;;2.60;;
10643;SDS011;5370;50.132;8.626;2023-04-15T10:29:45;6.73;;;2.83;;
10643;SDS011;5370;50.132;8.626;2023-04-15T10:32:11;4.00;;;2.10;;
10643;SDS011;5370;50.132;8.626;2023-04-15T10:34:38;2.97;;;2.17;;
10643;SDS011;5370;50.132;8.626;2023-04-15T10:37:08;4.00;;;2.20;;
10643;SDS011;5370;50.132;8.626;2023-04-15T10:42:08;3.37;;;2.40;;
10643;SDS011;5370;50.132;8.626;2023-04-15T10:44:37;2.07;;;1.63;;
10643;SDS011;5370;50.132;8.626;2023-04-15T10:47:08;3.13;;;2.20;;
10643;SDS011;5370;50.132;8.626;2023-04-15T10:49:41;2.50;;;2.30;;
10643;SDS011;5370;50.132;8.626;2023-04-15T10:52:24;3.97;;;2.27;;
10643;SDS011;5370;50.132;8.626;2023-04-15T10:57:36;2.37;;;2.13;;
10643;SDS011;5370;50.132;8.626;2023-04-15T11:00:10;3.97;;;2.33;;
10643;SDS011;5370;50.132;8.626;2023-04-15T11:02:41;3.10;;;2.27;;
10643;SDS011;5370;50.132;8.626;2023-04-15T11:05:16;4.10;;;2.30;;
10643;SDS011;5370;50.132;8.626;2023-04-15T11:13:01;4.23;;;2.60;;
10643;SDS011;5370;50.132;8.626;2023-04-15T11:21:07;4.57;;;2.60;;
10643;SDS011;5370;50.132;8.626;2023-04-15T11:23:34;4.47;;;2.73;;
10643;SDS011;5370;50.132;8.626;2023-04-15T11:26:02;2.40;;;2.20;;
10643;SDS011;5370;50.132;8.626;2023-04-15T11:28:31;2.40;;;2.20;;
10643;SDS011;5370;50.132;8.626;2023-04-15T11:30:57;3.17;;;2.35;;
10643;SDS011;5370;50.132;8.626;2023-04-15T11:33:29;3.80;;;2.45;;
10643;SDS011;5370;50.132;8.626;2023-04-15T11:35:55;2.50;;;2.27;;
10643;SDS011;5370;50.132;8.626;2023-04-15T11:38:20;2.60;;;2.40;;
10643;SDS011;5370;50.132;8.626;2023-04-15T11:40:46;4.63;;;2.43;;
10643;SDS011;5370;50.132;8.626;2023-04-15T11:43:14;3.13;;;2.83;;
10643;SDS011;5370;50.132;8.626;2023-04-15T11:45:48;2.80;;;2.60;;
10643;SDS011;5370;50.132;8.626;2023-04-15T11:48:17;2.57;;;2.37;;
10643;SDS011;5370;50.132;8.626;2023-04-15T11:50:43;2.80;;;2.60;;
10643;SDS011;5370;50.132;8.626;2023-04-15T11:53:10;4.03;;;2.50;;
10643;SDS011;5370;50.132;8.626;2023-04-15T11:58:14;3.17;;;2.63;;
10643;SDS011;5370;50.132;8.626;2023-04-15T12:00:46;3.70;;;2.80;;
10643;SDS011;5370;50.132;8.626;2023-04-15T12:03:21;3.00;;;2.60;;
10643;SDS011;5370;50.132;8.626;2023-04-15T12:11:13;2.70;;;2.50;;
10643;SDS011;5370;50.132;8.626;2023-04-15T12:13:43;6.07;;;3.23;;
10643;SDS011;5370;50.132;8.626;2023-04-15T12:16:11;4.23;;;3.00;;
10643;SDS011;5370;50.132;8.626;2023-04-15T12:18:37;6.83;;;3.53;;
10643;SDS011;5370;50.132;8.626;2023-04-15T12:21:12;4.83;;;3.63;;
10643;SDS011;5370;50.132;8.626;2023-04-15T12:23:38;4.03;;;3.17;;
10643;SDS011;5370;50.132;8.626;2023-04-15T12:26:11;3.80;;;3.50;;
10643;SDS011;5370;50.132;8.626;2023-04-15T12:28:39;6.40;;;3.90;;
10643;SDS011;5370;50.132;8.626;2023-04-15T12:31:06;4.80;;;3.67;;
10643;SDS011;5370;50.132;8.626;2023-04-15T12:33:33;4.33;;;2.50;;
10643;SDS011;5370;50.132;8.626;2023-04-15T12:35:59;1.97;;;1.80;;
10643;SDS011;5370;50.132;8.626;2023-04-15T12:38:25;2.03;;;1.50;;
10643;SDS011;5370;50.132;8.626;2023-04-15T12:40:50;0.87;;;0.87;;
10643;SDS011;5370;50.132;8.626;2023-04-15T12:43:16;0.90;;;0.90;;
10643;SDS011;5370;50.132;8.626;2023-04-15T12:45:42;2.00;;;1.20;;
10643;SDS011;5370;50.132;8.626;2023-04-15T12:48:07;1.63;;;1.30;;
10643;SDS011;5370;50.132;8.626;2023-04-15T12:50:33;3.13;;;0.80;;
10643;SDS011;5370;50.132;8.626;2023-04-15T12:52:59;1.90;;;1.70;;
10643;SDS011;5370;50.132;8.626;2023-04-15T12:55:25;1.17;;;1.17;;
10643;SDS011;5370;50.132;8.626;2023-04-15T12:57:50;1.83;;;0.93;;
10643;SDS011;5370;50.132;8.626;2023-04-15T13:00:16;1.10;;;0.80;;
10643;SDS011;5370;50.132;8.626;2023-04-15T13:02:42;1.10;;;1.00;;
10643;SDS011;5370;50.132;8.626;2023-04-15T13:05:08;0.80;;;0.80;;
10643;SDS011;5370;50.132;8.626;2023-04-15T13:07:34;1.40;;;0.90;;
10643;SDS011;5370;50.132;8.626;2023-04-15T13:10:00;2.50;;;0.70;;
10643;SDS011;5370;50.132;8.626;2023-04-15T13:12:26;0.77;;;0.77;;
10643;SDS011;5370;50.132;8.626;2023-04-15T13:14:51;1.93;;;0.87;;
10643;SDS011;5370;50.132;8.626;2023-04-15T13:17:17;0.93;;;0.80;;
10643;SDS011;5370;50.132;8.626;2023-04-15T13:19:44;0.60;;;0.60;;
10643;SDS011;5370;50.132;8.626;2023-04-15T13:22:10;1.17;;;1.00;;
10643;SDS011;5370;50.132;8.626;2023-04-15T13:24:36;1.20;;;0.90;;
10643;SDS011;5370;50.132;8.626;2023-04-15T13:27:03;2.53;;;0.80;;
10643;SDS011;5370;50.132;8.626;2023-04-15T13:29:29;0.70;;;0.70;;
10643;SDS011;5370;50.132;8.626;2023-04-15T13:31:54;0.93;;;0.80;;
10643;SDS011;5370;50.132;8.626;2023-04-15T13:34:20;0.73;;;0.60;;
10643;SDS011;5370;50.132;8.626;2023-04-15T13:36:46;0.80;;;0.80;;
10643;SDS011;5370;50.132;8.626;2023-04-15T13:39:11;0.83;;;0.73;;
10643;SDS011;5370;50.132;8.626;2023-04-15T13:41:38;1.23;;;0.90;;
10643;SDS011;5370;50.132;8.626;2023-04-15T13:44:04;1.57;;;1.10;;
10643;SDS011;5370;50.132;8.626;2023-04-15T13:46:30;1.67;;;1.00;;
10643;SDS011;5370;50.132;8.626;2023-04-15T13:48:55;1.13;;;0.83;;
10643;SDS011;5370;50.132;8.626;2023-04-15T13:51:21;0.80;;;0.80;;
10643;SDS011;5370;50.132;8.626;2023-04-15T13:53:46;2.23;;;0.67;;
10643;SDS011;5370;50.132;8.626;2023-04-15T13:56:12;0.80;;;0.80;;
10643;SDS011;5370;50.132;8.626;2023-04-15T13:58:39;1.57;;;0.80;;
10643;SDS011;5370;50.132;8.626;2023-04-15T14:01:05;1.07;;;0.97;;
10643;SDS011;5370;50.132;8.626;2023-04-15T14:03:30;0.97;;;0.90;;
10643;SDS011;5370;50.132;8.626;2023-04-15T14:05:56;0.80;;;0.60;;
10643;SDS011;5370;50.132;8.626;2023-04-15T14:08:23;1.90;;;0.70;;
10643;SDS011;5370;50.132;8.626;2023-04-15T14:10:49;1.60;;;0.67;;
10643;SDS011;5370;50.132;8.626;2023-04-15T14:13:15;1.40;;;0.80;;
10643;SDS011;5370;50.132;8.626;2023-04-15T14:15:40;0.80;;;0.80;;
10643;SDS011;5370;50.132;8.626;2023-04-15T14:18:06;1.13;;;0.60;;
10643;SDS011;5370;50.132;8.626;2023-04-15T14:20:32;2.67;;;1.13;;
10643;SDS011;5370;50.132;8.626;2023-04-15T14:22:57;1.90;;;1.00;;
10643;SDS011;5370;50.132;8.626;2023-04-15T14:25:23;0.73;;;0.70;;
10643;SDS011;5370;50.132;8.626;2023-04-15T14:27:49;0.83;;;0.83;;
10643;SDS011;5370;50.132;8.626;2023-04-15T14:30:15;1.23;;;0.80;;
10643;SDS011;5370;50.132;8.626;2023-04-15T14:32:41;1.50;;;1.40;;
10643;SDS011;5370;50.132;8.626;2023-04-15T14:35:06;3.53;;;1.10;;
10643;SDS011;5370;50.132;8.626;2023-04-15T14:37:32;1.40;;;0.93;;
10643;SDS011;5370;50.132;8.626;2023-04-15T14:39:58;1.90;;;1.30;;
10643;SDS011;5370;50.132;8.626;2023-04-15T14:42:23;2.03;;;1.10;;
10643;SDS011;5370;50.132;8.626;2023-04-15T14:44:49;1.50;;;1.10;;
10643;SDS011;5370;50.132;8.626;2023-04-15T14:49:42;2.60;;;1.30;;
10643;SDS011;5370;50.132;8.626;2023-04-15T14:52:08;1.13;;;1.03;;
10643;SDS011;5370;50.132;8.626;2023-04-15T14:54:33;0.90;;;0.53;;
10643;SDS011;5370;50.132;8.626;2023-04-15T14:56:59;1.23;;;1.13;;
10643;SDS011;5370;50.132;8.626;2023-04-15T14:59:26;1.20;;;1.20;;
10643;SDS011;5370;50.132;8.626;2023-04-15T15:01:51;2.13;;;1.00;;
10643;SDS011;5370;50.132;8.626;2023-04-15T15:04:17;1.87;;;1.27;;
10643;SDS011;5370;50.132;8.626;2023-04-15T15:06:43;2.07;;;1.00;;
10643;SDS011;5370;50.132;8.626;2023-04-15T15:09:08;0.70;;;0.70;;
10643;SDS011;5370;50.132;8.626;2023-04-15T15:11:34;0.63;;;0.63;;
10643;SDS011;5370;50.132;8.626;2023-04-15T15:13:59;0.60;;;0.60;;
10643;SDS011;5370;50.132;8.626;2023-04-15T15:16:25;1.53;;;0.90;;
10643;SDS011;5370;50.132;8.626;2023-04-15T15:18:52;0.60;;;0.60;;
10643;SDS011;5370;50.132;8.626;2023-04-15T15:21:17;1.17;;;1.07;;
10643;SDS011;5370;50.132;8.626;2023-04-15T15:23:43;3.57;;;0.90;;